createdAt,value
2022-09-23T00:04:36.515Z,9.10
2022-09-23T00:09:37.167Z,9.02
2022-09-23T00:14:37.892Z,9.01
2022-09-23T00:19:38.600Z,8.98
2022-09-23T00:24:39.345Z,8.99
2022-09-23T00:29:40.065Z,9.02
2022-09-23T00:34:40.846Z,9.10
2022-09-23T00:39:41.581Z,9.14
2022-09-23T00:44:42.289Z,9.17
2022-09-23T00:49:43.061Z,9.13
2022-09-23T00:54:43.808Z,9.15
2022-09-23T00:59:44.508Z,9.13
2022-09-23T01:04:45.249Z,9.11
2022-09-23T01:09:45.950Z,9.05
2022-09-23T01:14:46.707Z,8.92
2022-09-23T01:19:47.438Z,8.87
2022-09-23T01:24:48.153Z,8.87
2022-09-23T01:29:48.890Z,8.86
2022-09-23T01:34:49.606Z,8.79
2022-09-23T01:39:50.333Z,8.73
2022-09-23T01:44:51.074Z,8.68
2022-09-23T01:49:51.790Z,8.62
2022-09-23T01:54:52.521Z,8.59
2022-09-23T01:59:53.271Z,8.56
2022-09-23T02:04:53.967Z,8.55
2022-09-23T02:09:54.706Z,8.44
2022-09-23T02:14:55.429Z,8.37
2022-09-23T02:19:56.173Z,8.37
2022-09-23T02:24:56.921Z,8.34
2022-09-23T02:29:57.657Z,8.33
2022-09-23T02:34:58.376Z,8.30
2022-09-23T02:39:59.106Z,8.20
2022-09-23T02:44:59.887Z,8.12
2022-09-23T02:50:00.627Z,8.12
2022-09-23T02:55:08.555Z,8.08
2022-09-23T03:00:02.299Z,8.11
2022-09-23T03:05:03.087Z,8.19
2022-09-23T03:10:03.804Z,8.19
2022-09-23T03:15:04.561Z,8.23
2022-09-23T03:20:05.330Z,8.19
2022-09-23T03:25:06.072Z,8.07
2022-09-23T03:30:06.868Z,8.07
2022-09-23T03:35:07.546Z,8.04
2022-09-23T03:40:08.395Z,7.98
2022-09-23T03:45:09.154Z,7.92
2022-09-23T03:50:09.911Z,7.90
2022-09-23T03:55:10.608Z,7.90
2022-09-23T04:00:11.426Z,7.90
2022-09-23T04:05:12.185Z,7.85
2022-09-23T04:10:12.874Z,7.74
2022-09-23T04:15:13.759Z,7.68
2022-09-23T04:20:14.457Z,7.71
2022-09-23T04:25:15.186Z,7.77
2022-09-23T04:30:15.893Z,7.82
2022-09-23T04:35:16.575Z,7.80
2022-09-23T04:40:17.365Z,7.74
2022-09-23T04:45:18.013Z,7.71
2022-09-23T04:50:18.694Z,7.77
2022-09-23T04:55:19.375Z,7.80
2022-09-23T05:00:20.042Z,7.85
2022-09-23T05:05:20.737Z,7.83
2022-09-23T05:10:21.562Z,7.86
2022-09-23T05:15:22.273Z,7.87
2022-09-23T05:20:22.950Z,7.85
2022-09-23T05:25:23.711Z,7.85
2022-09-23T05:30:24.424Z,7.82
2022-09-23T05:35:25.118Z,7.92
2022-09-23T05:40:25.878Z,8.04
2022-09-23T05:45:27.021Z,8.11
2022-09-23T05:50:27.236Z,8.11
2022-09-23T05:55:27.940Z,8.22
2022-09-23T06:00:28.679Z,8.34
2022-09-23T06:05:29.399Z,8.50
2022-09-23T06:10:30.145Z,8.65
2022-09-23T06:15:30.865Z,8.83
2022-09-23T06:20:31.662Z,9.04
2022-09-23T06:25:32.278Z,9.28
2022-09-23T06:30:33.018Z,9.47
2022-09-23T06:35:33.702Z,9.61
2022-09-23T06:40:34.422Z,9.71
2022-09-23T06:45:35.145Z,9.84
2022-09-23T06:50:35.876Z,10.02
2022-09-23T06:55:36.520Z,10.27
2022-09-23T07:00:37.246Z,10.44
2022-09-23T07:05:37.891Z,10.67
2022-09-23T07:10:38.642Z,10.96
2022-09-23T07:15:39.381Z,11.25
2022-09-23T07:20:40.002Z,11.46
2022-09-23T07:25:40.789Z,11.62
2022-09-23T07:30:54.066Z,11.85
2022-09-23T07:35:42.991Z,12.16
2022-09-23T07:40:42.715Z,12.24
2022-09-23T07:45:43.388Z,12.38
2022-09-23T07:50:44.052Z,12.71
2022-09-23T07:55:44.735Z,12.90
2022-09-23T08:00:45.394Z,13.03
2022-09-23T08:05:46.065Z,13.25
2022-09-23T08:10:46.739Z,13.42
2022-09-23T08:15:49.988Z,13.55
2022-09-23T08:20:48.965Z,13.67
2022-09-23T08:25:48.640Z,13.73
2022-09-23T08:30:49.348Z,13.96
2022-09-23T08:35:50.016Z,14.07
2022-09-23T08:40:50.677Z,14.10
2022-09-23T08:45:51.430Z,14.33
2022-09-23T08:50:52.116Z,14.45
2022-09-23T08:55:59.790Z,14.43
2022-09-23T09:00:53.399Z,14.57
2022-09-23T09:05:54.547Z,14.57
2022-09-23T09:10:54.754Z,14.80
2022-09-23T09:15:55.389Z,14.94
2022-09-23T09:20:56.029Z,15.13
2022-09-23T09:25:56.703Z,15.32
2022-09-23T09:30:57.452Z,15.47
2022-09-23T09:35:58.155Z,15.49
2022-09-23T09:40:58.804Z,15.46
2022-09-23T09:45:59.503Z,15.60
2022-09-23T09:51:00.188Z,15.80
2022-09-23T09:56:04.623Z,15.93
2022-09-23T10:01:01.348Z,16.00
2022-09-23T10:06:02.059Z,16.07
2022-09-23T10:11:02.853Z,16.42
2022-09-23T10:16:03.737Z,16.57
2022-09-23T10:21:04.540Z,16.43
2022-09-23T10:26:05.226Z,16.41
2022-09-23T10:31:05.927Z,16.14
2022-09-23T10:36:06.880Z,16.05
2022-09-23T10:41:07.418Z,16.30
2022-09-23T10:46:08.157Z,16.83
2022-09-23T10:51:08.308Z,17.03
2022-09-23T10:56:09.005Z,17.25
2022-09-23T11:01:09.731Z,17.41
2022-09-23T11:06:10.374Z,17.25
2022-09-23T11:11:11.129Z,17.22
2022-09-23T11:16:11.892Z,17.22
2022-09-23T11:21:12.596Z,17.25
2022-09-23T11:26:13.284Z,17.43
2022-09-23T11:31:14.106Z,17.56
2022-09-23T11:36:14.784Z,17.59
2022-09-23T11:41:15.513Z,17.64
2022-09-23T11:46:16.445Z,17.34
2022-09-23T11:51:16.602Z,17.31
2022-09-23T11:56:28.147Z,17.26
2022-09-23T12:01:22.216Z,17.43
2022-09-23T12:06:19.397Z,17.38
2022-09-23T12:11:19.064Z,17.58
2022-09-23T12:16:19.762Z,17.86
2022-09-23T12:21:45.831Z,17.89
2022-09-23T12:26:22.063Z,17.72
2022-09-23T12:31:23.563Z,17.70
2022-09-23T12:36:22.160Z,17.55
2022-09-23T12:41:22.883Z,17.33
2022-09-23T12:46:24.260Z,17.52
2022-09-23T12:51:24.414Z,17.64
2022-09-23T12:56:25.193Z,17.64
2022-09-23T13:01:26.022Z,17.54
2022-09-23T13:06:26.730Z,17.66
2022-09-23T13:11:27.426Z,17.52
2022-09-23T13:16:28.136Z,17.62
2022-09-23T13:21:28.806Z,17.62
2022-09-23T13:26:29.514Z,17.77
2022-09-23T13:31:30.198Z,17.81
2022-09-23T13:36:30.917Z,17.93
2022-09-23T13:41:31.561Z,18.17
2022-09-23T13:46:32.228Z,18.18
2022-09-23T13:51:32.838Z,18.05
2022-09-23T13:56:33.587Z,17.84
2022-09-23T14:01:34.322Z,17.84
2022-09-23T14:06:35.026Z,17.43
2022-09-23T14:11:35.700Z,17.36
2022-09-23T14:16:36.486Z,17.59
2022-09-23T14:21:37.261Z,17.66
2022-09-23T14:26:37.984Z,17.55
2022-09-23T14:31:38.710Z,17.38
2022-09-23T14:36:39.536Z,17.23
2022-09-23T14:41:40.324Z,17.22
2022-09-23T14:46:41.037Z,17.11
2022-09-23T14:51:41.760Z,17.14
2022-09-23T14:56:42.508Z,17.12
2022-09-23T15:01:43.256Z,17.04
2022-09-23T15:06:43.931Z,17.01
2022-09-23T15:11:44.668Z,16.94
2022-09-23T15:16:45.367Z,16.88
2022-09-23T15:21:46.014Z,16.78
2022-09-23T15:26:46.704Z,16.75
2022-09-23T15:31:47.580Z,16.76
2022-09-23T15:36:48.377Z,16.75
2022-09-23T15:41:49.056Z,16.73
2022-09-23T15:46:49.703Z,16.71
2022-09-23T15:51:50.381Z,16.63
2022-09-23T15:56:51.288Z,16.63
2022-09-23T16:01:52.272Z,16.58
2022-09-23T16:06:52.694Z,16.49
2022-09-23T16:12:00.296Z,16.39
2022-09-23T16:16:54.062Z,16.30
2022-09-23T16:21:54.750Z,16.15
2022-09-23T16:26:55.403Z,16.07
2022-09-23T16:31:56.137Z,16.01
2022-09-23T16:36:56.777Z,15.97
2022-09-23T16:41:57.495Z,15.89
2022-09-23T16:46:58.154Z,15.80
2022-09-23T16:51:58.811Z,15.75
2022-09-23T16:56:59.539Z,15.65
2022-09-23T17:02:00.290Z,15.49
2022-09-23T17:07:00.943Z,15.38
2022-09-23T17:12:01.752Z,15.25
2022-09-23T17:17:02.393Z,15.10
2022-09-23T17:22:03.139Z,14.99
2022-09-23T17:27:03.835Z,14.88
2022-09-23T17:32:04.495Z,14.70
2022-09-23T17:37:05.287Z,14.60
2022-09-23T17:42:06.005Z,14.47
2022-09-23T17:47:06.783Z,14.39
2022-09-23T17:52:07.505Z,14.28
2022-09-23T17:57:08.287Z,14.21
2022-09-23T18:02:12.586Z,14.07
2022-09-23T18:07:10.624Z,14.02
2022-09-23T18:12:10.441Z,13.97
2022-09-23T18:17:11.207Z,13.88
2022-09-23T18:22:11.914Z,13.85
2022-09-23T18:27:12.622Z,13.84
2022-09-23T18:32:14.390Z,13.78
2022-09-23T18:37:16.167Z,13.79
2022-09-23T18:42:15.045Z,13.77
2022-09-23T18:47:15.897Z,13.77
2022-09-23T18:52:16.664Z,13.70
2022-09-23T18:57:17.358Z,13.63
2022-09-23T19:02:18.249Z,13.60
2022-09-23T19:07:19.042Z,13.52
2022-09-23T19:12:19.784Z,13.44
2022-09-23T19:17:20.591Z,13.33
2022-09-23T19:22:21.320Z,13.26
2022-09-23T19:27:22.056Z,13.28
2022-09-23T19:32:22.894Z,13.26
2022-09-23T19:37:23.629Z,13.29
2022-09-23T19:42:24.496Z,13.25
2022-09-23T19:47:25.271Z,13.17
2022-09-23T19:52:25.975Z,13.15
2022-09-23T19:57:26.732Z,13.12
2022-09-23T20:02:27.651Z,13.10
2022-09-23T20:07:28.484Z,13.01
2022-09-23T20:12:29.268Z,13.00
2022-09-23T20:17:29.993Z,13.01
2022-09-23T20:22:33.369Z,13.04
2022-09-23T20:27:31.365Z,13.03
2022-09-23T20:32:32.075Z,12.96
2022-09-23T20:37:32.806Z,12.95
2022-09-23T20:42:33.487Z,12.90
2022-09-23T20:47:34.345Z,12.87
2022-09-23T20:52:35.066Z,12.83
2022-09-23T20:57:35.779Z,12.79
2022-09-23T21:02:36.535Z,12.82
2022-09-23T21:07:37.254Z,12.78
2022-09-23T21:12:38.029Z,12.77
2022-09-23T21:17:38.705Z,12.77
2022-09-23T21:22:39.403Z,12.77
2022-09-23T21:27:40.132Z,12.82
2022-09-23T21:32:40.850Z,12.82
2022-09-23T21:37:41.560Z,12.85
2022-09-23T21:42:42.468Z,12.86
2022-09-23T21:47:43.132Z,12.87
2022-09-23T21:52:43.872Z,12.87
2022-09-23T21:57:44.570Z,12.86
2022-09-23T22:02:45.312Z,12.82
2022-09-23T22:07:46.062Z,12.79
2022-09-23T22:12:53.787Z,12.77
2022-09-23T22:17:47.561Z,12.78
2022-09-23T22:22:48.407Z,12.77
2022-09-23T22:27:49.116Z,12.74
2022-09-23T22:32:54.896Z,12.71
2022-09-23T22:37:51.512Z,12.67
2022-09-23T22:42:51.240Z,12.64
2022-09-23T22:47:51.898Z,12.62
2022-09-23T22:52:52.689Z,12.60
2022-09-23T22:57:53.380Z,12.53
2022-09-23T23:02:54.180Z,12.52
2022-09-23T23:07:54.927Z,12.52
2022-09-23T23:12:55.595Z,12.50
2022-09-23T23:17:56.388Z,12.49
2022-09-23T23:22:57.120Z,12.49
2022-09-23T23:27:57.786Z,12.47
2022-09-23T23:32:58.485Z,12.47
2022-09-23T23:37:59.278Z,12.41
2022-09-23T23:42:59.988Z,12.39
2022-09-23T23:48:00.710Z,12.34
2022-09-23T23:53:01.439Z,12.29
2022-09-23T23:58:02.171Z,12.28
